createdAt,value
2019-03-27T00:01:15.338Z,100282.39
2019-03-27T00:03:44.772Z,100266.59
2019-03-27T00:06:14.217Z,100282.41
2019-03-27T00:08:43.647Z,100281.13
2019-03-27T00:11:15.994Z,100279.39
2019-03-27T00:13:44.242Z,100273.84
2019-03-27T00:16:13.684Z,100280.33
2019-03-27T00:18:43.122Z,100273.91
2019-03-27T00:21:12.566Z,100283.36
2019-03-27T00:23:41.993Z,100276.93
2019-03-27T00:26:11.434Z,100270.94
2019-03-27T00:28:40.859Z,100277.39
2019-03-27T00:31:11.855Z,100275.23
2019-03-27T00:33:41.587Z,100269.72
2019-03-27T00:36:11.025Z,100273.06
2019-03-27T00:38:40.459Z,100268.78
2019-03-27T00:41:09.902Z,100276.52
2019-03-27T00:43:39.340Z,100269.69
2019-03-27T00:46:09.114Z,100272.64
2019-03-27T00:48:38.554Z,100275.28
2019-03-27T00:51:07.992Z,100271.45
2019-03-27T00:53:37.436Z,100276.05
2019-03-27T00:56:06.882Z,100273.91
2019-03-27T00:58:36.325Z,100266.20
2019-03-27T01:01:10.620Z,100261.59
2019-03-27T01:03:40.417Z,100262.86
2019-03-27T01:06:10.393Z,100263.28
2019-03-27T01:08:39.829Z,100266.22
2019-03-27T01:11:09.273Z,100271.78
2019-03-27T01:13:38.710Z,100269.31
2019-03-27T01:16:08.210Z,100268.48
2019-03-27T01:18:37.641Z,100263.74
2019-03-27T01:21:07.137Z,100259.44
2019-03-27T01:23:36.564Z,100259.89
2019-03-27T01:26:06.007Z,100262.89
2019-03-27T01:28:35.746Z,100264.55
2019-03-27T01:31:05.255Z,100265.39
2019-03-27T01:33:34.693Z,100270.98
2019-03-27T01:36:04.137Z,100267.98
2019-03-27T01:38:33.566Z,100261.11
2019-03-27T01:41:03.019Z,100254.67
2019-03-27T01:43:32.443Z,100256.81
2019-03-27T01:46:01.889Z,100254.73
2019-03-27T01:48:31.324Z,100252.66
2019-03-27T01:51:00.784Z,100247.89
2019-03-27T01:53:30.446Z,100248.30
2019-03-27T01:55:59.893Z,100250.80
2019-03-27T01:58:29.322Z,100253.89
2019-03-27T02:00:58.846Z,100253.89
2019-03-27T02:03:28.281Z,100252.61
2019-03-27T02:05:57.726Z,100247.47
2019-03-27T02:08:27.156Z,100248.31
2019-03-27T02:10:56.595Z,100244.38
2019-03-27T02:13:26.038Z,100244.30
2019-03-27T02:16:06.265Z,100249.40
2019-03-27T02:18:26.632Z,100254.73
2019-03-27T02:20:56.087Z,100252.15
2019-03-27T02:23:25.513Z,100245.25
2019-03-27T02:25:54.959Z,100246.17
2019-03-27T02:28:24.401Z,100244.81
2019-03-27T02:30:54.237Z,100251.70
2019-03-27T02:33:23.679Z,100250.52
2019-03-27T02:35:53.115Z,100253.16
2019-03-27T02:38:22.547Z,100252.23
2019-03-27T02:40:51.992Z,100248.33
2019-03-27T02:43:21.426Z,100249.21
2019-03-27T02:45:51.170Z,100247.00
2019-03-27T02:48:20.612Z,100246.58
2019-03-27T02:50:50.059Z,100247.95
2019-03-27T02:53:19.492Z,100253.94
2019-03-27T02:55:48.952Z,100255.20
2019-03-27T02:58:18.377Z,100257.80
2019-03-27T03:00:47.819Z,100259.95
2019-03-27T03:03:17.256Z,100256.56
2019-03-27T03:05:46.790Z,100258.72
2019-03-27T03:08:16.200Z,100257.80
2019-03-27T03:10:46.051Z,100262.98
2019-03-27T03:13:15.665Z,100263.39
2019-03-27T03:15:45.093Z,100258.31
2019-03-27T03:18:14.553Z,100265.67
2019-03-27T03:20:43.984Z,100257.56
2019-03-27T03:23:13.436Z,100259.31
2019-03-27T03:25:42.873Z,100257.21
2019-03-27T03:28:12.317Z,100253.70
2019-03-27T03:30:41.761Z,100257.07
2019-03-27T03:33:11.219Z,100254.97
2019-03-27T03:35:40.636Z,100251.52
2019-03-27T03:38:10.088Z,100254.11
2019-03-27T03:40:39.511Z,100254.57
2019-03-27T03:43:09.026Z,100259.27
2019-03-27T03:45:38.466Z,100254.97
2019-03-27T03:48:07.917Z,100259.64
2019-03-27T03:50:42.804Z,100255.38
2019-03-27T03:53:14.272Z,100266.51
2019-03-27T03:55:43.925Z,100260.58
2019-03-27T03:58:15.685Z,100268.23
2019-03-27T04:00:45.347Z,100262.66
2019-03-27T04:03:15.132Z,100261.41
2019-03-27T04:05:44.568Z,100263.15
2019-03-27T04:08:14.008Z,100266.56
2019-03-27T04:10:43.439Z,100264.44
2019-03-27T04:13:12.890Z,100263.15
2019-03-27T04:15:42.401Z,100260.56
2019-03-27T04:18:11.853Z,100270.05
2019-03-27T04:20:41.293Z,100268.78
2019-03-27T04:23:10.743Z,100266.66
2019-03-27T04:26:07.076Z,100271.47
2019-03-27T04:28:11.347Z,100271.44
2019-03-27T04:30:41.100Z,100270.53
2019-03-27T04:33:10.550Z,100269.23
2019-03-27T04:35:39.987Z,100265.38
2019-03-27T04:38:09.427Z,100265.00
2019-03-27T04:40:38.862Z,100262.04
2019-03-27T04:43:08.306Z,100268.08
2019-03-27T04:45:37.737Z,100265.05
2019-03-27T04:48:07.196Z,100274.09
2019-03-27T04:50:36.629Z,100272.79
2019-03-27T04:53:06.075Z,100256.57
2019-03-27T04:55:35.507Z,100271.14
2019-03-27T04:58:04.963Z,100266.88
2019-03-27T05:00:34.402Z,100271.16
2019-03-27T05:03:03.847Z,100274.13
2019-03-27T05:05:33.288Z,100271.08
2019-03-27T05:08:02.986Z,100279.64
2019-03-27T05:10:32.424Z,100276.22
2019-03-27T05:13:01.857Z,100280.06
2019-03-27T05:15:31.299Z,100290.77
2019-03-27T05:18:00.744Z,100294.66
2019-03-27T05:20:30.184Z,100295.05
2019-03-27T05:22:59.630Z,100302.30
2019-03-27T05:25:29.068Z,100294.63
2019-03-27T05:27:58.503Z,100301.52
2019-03-27T05:30:31.463Z,100298.92
2019-03-27T05:33:00.896Z,100299.33
2019-03-27T05:35:30.348Z,100304.45
2019-03-27T05:37:59.787Z,100308.73
2019-03-27T05:40:29.228Z,100307.83
2019-03-27T05:43:01.083Z,100300.97
2019-03-27T05:45:30.110Z,100312.12
2019-03-27T05:48:00.170Z,100307.45
2019-03-27T05:50:29.677Z,100322.01
2019-03-27T05:52:59.129Z,100319.86
2019-03-27T05:55:28.835Z,100323.69
2019-03-27T05:57:58.272Z,100330.55
2019-03-27T06:00:27.729Z,100331.41
2019-03-27T06:02:57.162Z,100333.52
2019-03-27T06:05:26.607Z,100337.36
2019-03-27T06:07:56.042Z,100337.73
2019-03-27T06:10:25.502Z,100334.73
2019-03-27T06:12:54.937Z,100328.72
2019-03-27T06:15:24.390Z,100338.09
2019-03-27T06:17:53.832Z,100335.13
2019-03-27T06:20:23.296Z,100335.51
2019-03-27T06:22:52.724Z,100336.80
2019-03-27T06:25:22.170Z,100333.30
2019-03-27T06:27:51.606Z,100334.97
2019-03-27T06:30:21.056Z,100330.24
2019-03-27T06:32:50.496Z,100337.89
2019-03-27T06:35:20.381Z,100339.64
2019-03-27T06:37:49.857Z,100339.70
2019-03-27T06:40:19.303Z,100339.67
2019-03-27T06:42:48.758Z,100336.18
2019-03-27T06:45:18.456Z,100336.14
2019-03-27T06:47:47.897Z,100335.30
2019-03-27T06:50:17.612Z,100338.20
2019-03-27T06:52:47.044Z,100339.47
2019-03-27T06:55:16.569Z,100336.91
2019-03-27T06:57:46.006Z,100341.25
2019-03-27T07:00:16.101Z,100346.84
2019-03-27T07:02:45.531Z,100346.02
2019-03-27T07:05:15.117Z,100351.55
2019-03-27T07:07:44.571Z,100345.52
2019-03-27T07:10:14.160Z,100346.40
2019-03-27T07:12:43.599Z,100350.62
2019-03-27T07:15:13.113Z,100355.77
2019-03-27T07:17:42.555Z,100350.56
2019-03-27T07:20:12.075Z,100357.06
2019-03-27T07:22:41.518Z,100355.75
2019-03-27T07:25:11.190Z,100367.73
2019-03-27T07:27:40.887Z,100370.30
2019-03-27T07:30:11.947Z,100361.65
2019-03-27T07:32:41.385Z,100359.11
2019-03-27T07:35:10.825Z,100371.55
2019-03-27T07:37:40.319Z,100371.91
2019-03-27T07:40:09.838Z,100375.70
2019-03-27T07:42:39.296Z,100369.23
2019-03-27T07:45:09.582Z,100370.94
2019-03-27T07:47:39.039Z,100375.66
2019-03-27T07:50:09.205Z,100371.34
2019-03-27T07:52:38.655Z,100376.16
2019-03-27T07:55:18.665Z,100376.11
2019-03-27T07:57:39.431Z,100382.04
2019-03-27T08:00:16.408Z,100388.48
2019-03-27T08:02:45.859Z,100384.94
2019-03-27T08:05:15.852Z,100384.80
2019-03-27T08:07:45.348Z,100389.47
2019-03-27T08:10:15.196Z,100393.15
2019-03-27T08:12:44.912Z,100387.48
2019-03-27T08:15:16.313Z,100391.69
2019-03-27T08:17:45.752Z,100390.86
2019-03-27T08:20:16.582Z,100388.80
2019-03-27T08:22:46.317Z,100392.16
2019-03-27T08:25:16.096Z,100389.87
2019-03-27T08:27:45.554Z,100393.69
2019-03-27T08:30:16.390Z,100388.15
2019-03-27T08:32:45.855Z,100391.86
2019-03-27T08:35:15.354Z,100392.55
2019-03-27T08:37:44.803Z,100395.16
2019-03-27T08:40:15.041Z,100395.11
2019-03-27T08:42:44.929Z,100384.83
2019-03-27T08:45:15.731Z,100380.73
2019-03-27T08:47:45.175Z,100381.56
2019-03-27T08:50:16.257Z,100386.44
2019-03-27T08:52:45.714Z,100385.55
2019-03-27T08:55:15.224Z,100393.68
2019-03-27T08:57:44.673Z,100391.84
2019-03-27T09:00:14.951Z,100393.97
2019-03-27T09:02:44.412Z,100394.89
2019-03-27T09:05:13.984Z,100393.28
2019-03-27T09:07:43.428Z,100392.06
2019-03-27T09:10:13.609Z,100394.23
2019-03-27T09:12:43.059Z,100396.77
2019-03-27T09:15:12.833Z,100400.88
2019-03-27T09:17:42.285Z,100394.75
2019-03-27T09:20:12.067Z,100395.36
2019-03-27T09:22:41.515Z,100394.17
2019-03-27T09:25:11.366Z,100396.17
2019-03-27T09:27:40.823Z,100394.86
2019-03-27T09:30:14.555Z,100398.61
2019-03-27T09:32:44.164Z,100400.70
2019-03-27T09:35:13.954Z,100389.64
2019-03-27T09:37:43.397Z,100388.59
2019-03-27T09:40:13.217Z,100392.92
2019-03-27T09:42:42.772Z,100394.69
2019-03-27T09:45:13.348Z,100397.70
2019-03-27T09:47:43.057Z,100396.23
2019-03-27T09:50:12.832Z,100386.92
2019-03-27T09:52:42.335Z,100385.59
2019-03-27T09:55:12.118Z,100381.33
2019-03-27T09:57:41.569Z,100375.55
2019-03-27T10:00:11.848Z,100383.39
2019-03-27T10:02:41.302Z,100383.16
2019-03-27T10:05:11.185Z,100379.74
2019-03-27T10:07:40.648Z,100374.13
2019-03-27T10:10:10.530Z,100378.05
2019-03-27T10:12:39.947Z,100376.48
2019-03-27T10:15:09.735Z,100377.77
2019-03-27T10:17:39.185Z,100370.41
2019-03-27T10:20:08.972Z,100367.94
2019-03-27T10:22:38.429Z,100372.64
2019-03-27T10:25:10.642Z,100374.22
2019-03-27T10:27:40.090Z,100374.92
2019-03-27T10:30:10.246Z,100375.63
2019-03-27T10:32:39.720Z,100374.91
2019-03-27T10:35:09.632Z,100365.33
2019-03-27T10:37:39.091Z,100363.47
2019-03-27T10:40:10.311Z,100368.39
2019-03-27T10:42:39.765Z,100368.81
2019-03-27T10:45:10.142Z,100367.09
2019-03-27T10:47:39.919Z,100367.86
2019-03-27T10:50:17.507Z,100368.30
2019-03-27T10:52:41.133Z,100366.58
2019-03-27T10:55:11.409Z,100369.60
2019-03-27T10:57:40.858Z,100367.09
2019-03-27T11:00:13.465Z,100372.96
2019-03-27T11:02:42.934Z,100366.36
2019-03-27T11:05:12.391Z,100361.89
2019-03-27T11:07:41.826Z,100364.00
2019-03-27T11:10:11.428Z,100359.49
2019-03-27T11:12:40.847Z,100359.02
2019-03-27T11:15:10.802Z,100362.85
2019-03-27T11:17:40.258Z,100360.52
2019-03-27T11:20:10.205Z,100359.49
2019-03-27T11:22:39.644Z,100368.31
2019-03-27T11:25:09.704Z,100367.56
2019-03-27T11:27:39.149Z,100368.80
2019-03-27T11:30:10.712Z,100362.31
2019-03-27T11:32:40.159Z,100359.88
2019-03-27T11:35:09.734Z,100362.00
2019-03-27T11:37:39.180Z,100356.91
2019-03-27T11:40:09.970Z,100352.73
2019-03-27T11:42:39.420Z,100346.78
2019-03-27T11:45:09.203Z,100346.41
2019-03-27T11:47:38.641Z,100344.58
2019-03-27T11:50:11.208Z,100341.50
2019-03-27T11:52:40.651Z,100334.69
2019-03-27T11:55:10.340Z,100338.38
2019-03-27T11:57:39.779Z,100346.48
2019-03-27T12:00:11.536Z,100342.83
2019-03-27T12:02:41.152Z,100340.25
2019-03-27T12:05:10.950Z,100337.08
2019-03-27T12:07:40.387Z,100339.25
2019-03-27T12:10:10.200Z,100336.80
2019-03-27T12:12:39.624Z,100339.61
2019-03-27T12:15:09.767Z,100345.56
2019-03-27T12:17:39.210Z,100337.08
2019-03-27T12:20:09.381Z,100334.55
2019-03-27T12:22:38.833Z,100329.07
2019-03-27T12:25:08.648Z,100336.16
2019-03-27T12:27:38.112Z,100329.39
2019-03-27T12:30:08.807Z,100330.44
2019-03-27T12:32:38.244Z,100328.52
2019-03-27T12:35:08.132Z,100322.30
2019-03-27T12:37:37.576Z,100324.19
2019-03-27T12:40:11.931Z,100323.37
2019-03-27T12:42:38.836Z,100323.69
2019-03-27T12:45:08.730Z,100326.77
2019-03-27T12:47:38.157Z,100324.89
2019-03-27T12:50:09.616Z,100323.69
2019-03-27T12:52:39.054Z,100324.03
2019-03-27T12:55:08.943Z,100324.56
2019-03-27T12:57:38.382Z,100325.48
2019-03-27T13:00:10.042Z,100323.59
2019-03-27T13:02:39.543Z,100326.00
2019-03-27T13:05:09.058Z,100328.44
2019-03-27T13:07:49.465Z,100320.63
2019-03-27T13:10:10.058Z,100320.95
2019-03-27T13:12:39.503Z,100321.58
2019-03-27T13:15:09.789Z,100320.62
2019-03-27T13:17:39.233Z,100316.39
2019-03-27T13:20:09.991Z,100322.68
2019-03-27T13:22:39.434Z,100319.38
2019-03-27T13:25:10.128Z,100306.95
2019-03-27T13:27:40.508Z,100314.67
2019-03-27T13:30:10.758Z,100307.51
2019-03-27T13:32:40.199Z,100313.03
2019-03-27T13:35:09.988Z,100307.45
2019-03-27T13:37:39.407Z,100306.93
2019-03-27T13:40:10.940Z,100311.66
2019-03-27T13:42:40.605Z,100309.41
2019-03-27T13:45:10.953Z,100306.30
2019-03-27T13:47:40.408Z,100310.43
2019-03-27T13:50:13.478Z,100303.14
2019-03-27T13:52:42.999Z,100304.39
2019-03-27T13:55:13.005Z,100304.97
2019-03-27T13:57:42.459Z,100311.97
2019-03-27T14:00:14.201Z,100311.48
2019-03-27T14:02:43.658Z,100313.72
2019-03-27T14:05:14.337Z,100312.20
2019-03-27T14:07:44.056Z,100311.77
2019-03-27T14:10:14.202Z,100311.83
2019-03-27T14:12:43.660Z,100308.77
2019-03-27T14:15:13.809Z,100302.67
2019-03-27T14:17:43.420Z,100305.07
2019-03-27T14:20:13.593Z,100302.39
2019-03-27T14:22:43.045Z,100302.77
2019-03-27T14:25:12.999Z,100299.27
2019-03-27T14:27:45.151Z,100293.89
2019-03-27T14:30:18.160Z,100295.98
2019-03-27T14:32:47.689Z,100292.42
2019-03-27T14:35:17.121Z,100291.80
2019-03-27T14:37:46.573Z,100296.16
2019-03-27T14:40:16.084Z,100288.33
2019-03-27T14:42:45.758Z,100287.77
2019-03-27T14:45:15.247Z,100285.23
2019-03-27T14:47:44.688Z,100293.82
2019-03-27T14:50:14.332Z,100292.70
2019-03-27T14:52:43.781Z,100290.71
2019-03-27T14:55:13.224Z,100292.27
2019-03-27T14:57:42.681Z,100298.17
2019-03-27T15:00:12.654Z,100298.83
2019-03-27T15:02:42.336Z,100299.20
2019-03-27T15:05:11.834Z,100293.42
2019-03-27T15:07:41.551Z,100298.05
2019-03-27T15:10:11.386Z,100298.55
2019-03-27T15:12:40.837Z,100297.91
2019-03-27T15:15:13.547Z,100300.63
2019-03-27T15:17:42.995Z,100298.34
2019-03-27T15:20:12.744Z,100296.35
2019-03-27T15:22:42.197Z,100303.53
2019-03-27T15:25:11.974Z,100298.33
2019-03-27T15:27:41.428Z,100301.41
2019-03-27T15:30:13.710Z,100299.33
2019-03-27T15:32:43.284Z,100297.74
2019-03-27T15:35:13.010Z,100302.22
2019-03-27T15:37:42.469Z,100297.38
2019-03-27T15:40:12.043Z,100301.83
2019-03-27T15:42:41.629Z,100297.14
2019-03-27T15:45:11.305Z,100299.08
2019-03-27T15:47:40.764Z,100296.28
2019-03-27T15:50:10.405Z,100298.64
2019-03-27T15:52:39.875Z,100296.41
2019-03-27T15:55:09.459Z,100297.16
2019-03-27T15:57:38.909Z,100296.19
2019-03-27T16:00:09.790Z,100292.52
2019-03-27T16:02:39.337Z,100289.23
2019-03-27T16:05:09.074Z,100289.42
2019-03-27T16:07:38.592Z,100294.28
2019-03-27T16:10:08.182Z,100292.31
2019-03-27T16:12:37.648Z,100295.48
2019-03-27T16:15:11.084Z,100298.17
2019-03-27T16:17:40.506Z,100296.53
2019-03-27T16:20:10.486Z,100291.06
2019-03-27T16:22:50.399Z,100291.54
2019-03-27T16:25:11.320Z,100293.45
2019-03-27T16:27:40.768Z,100296.67
2019-03-27T16:30:12.375Z,100292.79
2019-03-27T16:32:41.837Z,100296.39
2019-03-27T16:35:11.414Z,100298.35
2019-03-27T16:37:40.889Z,100296.24
2019-03-27T16:40:10.733Z,100306.36
2019-03-27T16:42:40.191Z,100299.46
2019-03-27T16:45:10.261Z,100303.44
2019-03-27T16:47:39.784Z,100302.23
2019-03-27T16:50:10.044Z,100309.92
2019-03-27T16:52:39.482Z,100305.40
2019-03-27T16:55:09.327Z,100316.72
2019-03-27T16:57:38.789Z,100310.05
2019-03-27T17:00:09.842Z,100310.53
2019-03-27T17:02:39.292Z,100314.23
2019-03-27T17:05:08.878Z,100322.77
2019-03-27T17:07:38.339Z,100320.23
2019-03-27T17:10:09.618Z,100319.70
2019-03-27T17:12:39.308Z,100323.93
2019-03-27T17:15:09.184Z,100329.09
2019-03-27T17:17:38.637Z,100331.86
2019-03-27T17:20:13.372Z,100327.94
2019-03-27T17:22:42.818Z,100333.33
2019-03-27T17:25:12.700Z,100341.58
2019-03-27T17:27:42.154Z,100340.03
2019-03-27T17:30:12.292Z,100347.89
2019-03-27T17:32:41.884Z,100342.32
2019-03-27T17:35:11.378Z,100347.11
2019-03-27T17:37:40.838Z,100342.80
2019-03-27T17:40:10.912Z,100345.86
2019-03-27T17:42:40.385Z,100351.56
2019-03-27T17:45:09.898Z,100343.92
2019-03-27T17:47:39.332Z,100347.80
2019-03-27T17:50:09.826Z,100357.80
2019-03-27T17:52:39.281Z,100352.23
2019-03-27T17:55:09.680Z,100357.41
2019-03-27T17:57:39.121Z,100356.56
2019-03-27T18:00:14.090Z,100361.77
2019-03-27T18:02:43.648Z,100361.81
2019-03-27T18:05:13.126Z,100365.34
2019-03-27T18:07:42.572Z,100358.92
2019-03-27T18:10:12.956Z,100366.69
2019-03-27T18:12:42.403Z,100368.45
2019-03-27T18:15:11.988Z,100367.66
2019-03-27T18:17:41.431Z,100370.25
2019-03-27T18:20:11.321Z,100375.04
2019-03-27T18:22:40.765Z,100376.02
2019-03-27T18:25:10.671Z,100378.61
2019-03-27T18:27:40.103Z,100381.59
2019-03-27T18:30:09.764Z,100387.70
2019-03-27T18:32:39.199Z,100384.73
2019-03-27T18:35:08.796Z,100393.27
2019-03-27T18:37:38.240Z,100395.98
2019-03-27T18:40:09.599Z,100397.78
2019-03-27T18:42:39.041Z,100404.80
2019-03-27T18:45:09.595Z,100405.77
2019-03-27T18:47:39.296Z,100413.53
2019-03-27T18:50:09.469Z,100417.02
2019-03-27T18:52:38.883Z,100419.36
2019-03-27T18:55:09.266Z,100416.63
2019-03-27T18:57:38.967Z,100419.65
2019-03-27T19:00:09.760Z,100420.55
2019-03-27T19:02:39.188Z,100422.70
2019-03-27T19:05:09.062Z,100430.85
2019-03-27T19:07:38.497Z,100435.73
2019-03-27T19:10:08.778Z,100434.80
2019-03-27T19:12:38.217Z,100432.75
2019-03-27T19:15:09.340Z,100436.77
2019-03-27T19:17:38.766Z,100433.31
2019-03-27T19:20:08.649Z,100439.88
2019-03-27T19:22:38.159Z,100435.34
2019-03-27T19:25:09.108Z,100436.73
2019-03-27T19:27:38.602Z,100439.02
2019-03-27T19:30:08.971Z,100447.32
2019-03-27T19:32:38.406Z,100446.95
2019-03-27T19:35:07.984Z,100450.09
2019-03-27T19:37:37.422Z,100450.45
2019-03-27T19:40:07.413Z,100453.84
2019-03-27T19:42:36.926Z,100459.62
2019-03-27T19:45:07.816Z,100463.64
2019-03-27T19:47:37.320Z,100462.04
2019-03-27T19:50:07.514Z,100463.06
2019-03-27T19:52:37.011Z,100454.05
2019-03-27T19:55:07.195Z,100457.09
2019-03-27T19:57:36.622Z,100459.04
2019-03-27T20:00:11.235Z,100463.37
2019-03-27T20:02:40.976Z,100468.45
2019-03-27T20:05:10.790Z,100467.19
2019-03-27T20:07:40.295Z,100462.59
2019-03-27T20:10:10.688Z,100468.26
2019-03-27T20:12:40.067Z,100470.33
2019-03-27T20:15:12.506Z,100471.84
2019-03-27T20:17:41.102Z,100474.36
2019-03-27T20:20:11.571Z,100484.20
2019-03-27T20:22:41.008Z,100480.45
2019-03-27T20:25:14.418Z,100474.45
2019-03-27T20:27:42.215Z,100473.61
2019-03-27T20:30:18.431Z,100479.58
2019-03-27T20:32:47.860Z,100477.52
2019-03-27T20:35:17.303Z,100475.89
2019-03-27T20:37:47.003Z,100477.26
2019-03-27T20:40:16.652Z,100479.02
2019-03-27T20:42:46.090Z,100481.50
2019-03-27T20:45:15.763Z,100475.27
2019-03-27T20:47:45.196Z,100472.45
2019-03-27T20:50:15.547Z,100475.16
2019-03-27T20:52:44.983Z,100478.30
2019-03-27T20:55:14.868Z,100478.09
2019-03-27T20:57:44.294Z,100475.58
2019-03-27T21:00:14.711Z,100481.20
2019-03-27T21:02:44.213Z,100486.36
2019-03-27T21:05:13.788Z,100491.09
2019-03-27T21:07:43.212Z,100492.42
2019-03-27T21:10:13.161Z,100489.45
2019-03-27T21:12:42.595Z,100486.94
2019-03-27T21:15:12.367Z,100492.59
2019-03-27T21:17:41.799Z,100497.37
2019-03-27T21:20:11.472Z,100494.36
2019-03-27T21:22:40.896Z,100500.91
2019-03-27T21:25:10.581Z,100494.48
2019-03-27T21:27:40.002Z,100491.49
2019-03-27T21:30:11.586Z,100495.38
2019-03-27T21:32:41.014Z,100495.86
2019-03-27T21:35:10.527Z,100492.47
2019-03-27T21:37:39.956Z,100488.63
2019-03-27T21:40:12.011Z,100497.61
2019-03-27T21:42:41.437Z,100496.32
2019-03-27T21:45:13.044Z,100500.22
2019-03-27T21:47:42.468Z,100498.97
2019-03-27T21:50:12.052Z,100501.10
2019-03-27T21:52:41.488Z,100502.41
2019-03-27T21:55:22.109Z,100493.92
2019-03-27T21:57:42.291Z,100500.35
2019-03-27T22:00:12.326Z,100504.66
2019-03-27T22:02:41.767Z,100504.19
2019-03-27T22:05:11.261Z,100506.34
2019-03-27T22:07:40.695Z,100506.33
2019-03-27T22:10:10.665Z,100515.36
2019-03-27T22:12:40.108Z,100516.65
2019-03-27T22:15:10.240Z,100510.61
2019-03-27T22:17:39.688Z,100505.09
2019-03-27T22:20:10.056Z,100511.92
2019-03-27T22:22:39.494Z,100505.55
2019-03-27T22:25:09.662Z,100507.66
2019-03-27T22:27:39.100Z,100514.08
2019-03-27T22:30:09.572Z,100514.48
2019-03-27T22:32:39.016Z,100512.80
2019-03-27T22:35:08.990Z,100516.66
2019-03-27T22:37:38.426Z,100523.56
2019-03-27T22:40:08.226Z,100520.58
2019-03-27T22:42:37.664Z,100529.97
2019-03-27T22:45:07.531Z,100529.99
2019-03-27T22:47:36.981Z,100524.83
2019-03-27T22:50:08.659Z,100529.54
2019-03-27T22:52:38.363Z,100532.97
2019-03-27T22:55:09.124Z,100535.97
2019-03-27T22:57:38.543Z,100530.85
2019-03-27T23:00:11.051Z,100531.70
2019-03-27T23:02:40.626Z,100532.98
2019-03-27T23:05:10.224Z,100531.26
2019-03-27T23:07:39.741Z,100537.67
2019-03-27T23:10:09.310Z,100537.23
2019-03-27T23:12:38.748Z,100529.06
2019-03-27T23:15:11.172Z,100531.20
2019-03-27T23:17:40.622Z,100528.64
2019-03-27T23:20:10.466Z,100535.89
2019-03-27T23:22:39.976Z,100535.44
2019-03-27T23:25:09.850Z,100542.26
2019-03-27T23:27:39.287Z,100534.11
2019-03-27T23:30:10.325Z,100536.21
2019-03-27T23:32:39.836Z,100532.33
2019-03-27T23:35:09.492Z,100529.34
2019-03-27T23:37:38.933Z,100529.34
2019-03-27T23:40:08.508Z,100532.73
2019-03-27T23:42:37.950Z,100537.84
2019-03-27T23:45:08.581Z,100531.84
2019-03-27T23:47:38.095Z,100530.52
2019-03-27T23:50:09.631Z,100527.55
2019-03-27T23:52:39.084Z,100531.85
2019-03-27T23:55:08.646Z,100534.36
2019-03-27T23:57:38.161Z,100529.62
